createdAt,value
2018-12-21T00:02:04.013Z,98328.14
2018-12-21T00:04:36.876Z,98330.23
2018-12-21T00:07:09.783Z,98337.52
2018-12-21T00:09:42.636Z,98340.55
2018-12-21T00:12:15.522Z,98341.40
2018-12-21T00:14:48.398Z,98338.38
2018-12-21T00:17:21.284Z,98337.52
2018-12-21T00:19:54.166Z,98334.95
2018-12-21T00:22:27.062Z,98328.91
2018-12-21T00:24:59.926Z,98326.70
2018-12-21T00:27:32.824Z,98323.27
2018-12-21T00:30:09.086Z,98328.40
2018-12-21T00:32:47.723Z,98330.11
2018-12-21T00:35:26.196Z,98327.95
2018-12-21T00:38:05.711Z,98323.23
2018-12-21T00:40:44.386Z,98318.10
2018-12-21T00:43:24.614Z,98312.97
2018-12-21T00:45:59.464Z,98312.16
2018-12-21T00:48:32.348Z,98316.89
2018-12-21T00:51:05.318Z,98317.73
2018-12-21T00:53:38.213Z,98318.59
2018-12-21T00:56:11.142Z,98315.55
2018-12-21T00:58:44.046Z,98317.70
2018-12-21T01:01:16.906Z,98317.66
2018-12-21T01:03:49.880Z,98315.45
2018-12-21T01:06:23.120Z,98320.59
2018-12-21T01:08:56.107Z,98316.72
2018-12-21T01:11:29.012Z,98321.42
2018-12-21T01:14:04.629Z,98327.46
2018-12-21T01:16:37.529Z,98326.61
2018-12-21T01:19:10.481Z,98323.61
2018-12-21T01:21:43.376Z,98330.53
2018-12-21T01:24:16.257Z,98333.55
2018-12-21T01:26:49.117Z,98338.71
2018-12-21T01:29:21.979Z,98336.14
2018-12-21T01:31:54.929Z,98346.95
2018-12-21T01:34:27.885Z,98340.93
2018-12-21T01:37:00.733Z,98344.74
2018-12-21T01:39:33.618Z,98340.01
2018-12-21T01:42:06.455Z,98345.58
2018-12-21T01:44:39.337Z,98338.27
2018-12-21T01:47:12.176Z,98337.84
2018-12-21T01:49:45.232Z,98333.13
2018-12-21T01:52:18.089Z,98324.55
2018-12-21T01:54:50.983Z,98329.71
2018-12-21T01:57:23.879Z,98321.56
2018-12-21T01:59:56.817Z,98316.46
2018-12-21T02:02:29.675Z,98318.18
2018-12-21T02:05:02.566Z,98323.28
2018-12-21T02:07:35.410Z,98319.39
2018-12-21T02:10:08.437Z,98310.78
2018-12-21T02:12:41.301Z,98315.52
2018-12-21T02:15:14.208Z,98305.20
2018-12-21T02:17:47.047Z,98308.63
2018-12-21T02:20:19.999Z,98305.64
2018-12-21T02:22:52.859Z,98310.78
2018-12-21T02:25:27.840Z,98312.00
2018-12-21T02:28:00.710Z,98318.84
2018-12-21T02:30:33.581Z,98307.61
2018-12-21T02:33:02.733Z,98309.34
2018-12-21T02:35:35.639Z,98309.39
2018-12-21T02:38:08.532Z,98303.40
2018-12-21T02:40:41.424Z,98305.55
2018-12-21T02:43:14.299Z,98305.13
2018-12-21T02:45:47.218Z,98294.37
2018-12-21T02:48:20.069Z,98293.91
2018-12-21T02:50:52.957Z,98292.53
2018-12-21T02:53:25.811Z,98288.59
2018-12-21T02:55:58.753Z,98298.87
2018-12-21T02:58:31.688Z,98296.63
2018-12-21T03:01:04.559Z,98284.58
2018-12-21T03:03:39.122Z,98276.88
2018-12-21T03:06:12.000Z,98270.86
2018-12-21T03:08:44.973Z,98266.13
2018-12-21T03:11:18.006Z,98253.23
2018-12-21T03:13:50.952Z,98246.75
2018-12-21T03:16:23.856Z,98244.19
2018-12-21T03:18:56.719Z,98238.58
2018-12-21T03:21:29.618Z,98234.20
2018-12-21T03:24:02.472Z,98221.70
2018-12-21T03:26:35.357Z,98213.89
2018-12-21T03:29:08.235Z,98215.48
2018-12-21T03:31:41.125Z,98215.36
2018-12-21T03:34:14.005Z,98212.72
2018-12-21T03:36:46.876Z,98199.73
2018-12-21T03:39:19.761Z,98200.98
2018-12-21T03:41:52.649Z,98198.39
2018-12-21T03:44:25.582Z,98198.80
2018-12-21T03:46:58.588Z,98188.41
2018-12-21T03:49:31.444Z,98191.41
2018-12-21T03:52:04.390Z,98184.52
2018-12-21T03:54:37.243Z,98176.31
2018-12-21T03:57:10.145Z,98172.03
2018-12-21T03:59:42.973Z,98165.18
2018-12-21T04:02:15.867Z,98165.20
2018-12-21T04:04:48.776Z,98157.02
2018-12-21T04:07:21.678Z,98149.28
2018-12-21T04:09:54.585Z,98144.13
2018-12-21T04:12:27.438Z,98142.41
2018-12-21T04:15:00.387Z,98136.47
2018-12-21T04:17:33.259Z,98137.77
2018-12-21T04:20:06.204Z,98127.84
2018-12-21T04:22:39.107Z,98134.75
2018-12-21T04:25:11.936Z,98134.33
2018-12-21T04:27:44.809Z,98135.64
2018-12-21T04:30:17.678Z,98131.80
2018-12-21T04:32:50.581Z,98128.34
2018-12-21T04:35:23.439Z,98131.38
2018-12-21T04:37:56.357Z,98131.84
2018-12-21T04:40:29.263Z,98124.45
2018-12-21T04:43:02.118Z,98125.32
2018-12-21T04:45:34.994Z,98121.84
2018-12-21T04:48:07.888Z,98127.44
2018-12-21T04:50:40.715Z,98126.98
2018-12-21T04:53:14.113Z,98121.33
2018-12-21T04:55:47.011Z,98112.73
2018-12-21T04:58:19.876Z,98107.55
2018-12-21T05:00:52.737Z,98101.08
2018-12-21T05:03:25.677Z,98088.93
2018-12-21T05:05:58.529Z,98084.58
2018-12-21T05:08:31.412Z,98086.72
2018-12-21T05:11:04.301Z,98081.99
2018-12-21T05:13:37.192Z,98083.26
2018-12-21T05:16:10.049Z,98079.78
2018-12-21T05:18:42.948Z,98077.20
2018-12-21T05:21:15.800Z,98062.48
2018-12-21T05:23:48.705Z,98060.64
2018-12-21T05:26:21.580Z,98063.18
2018-12-21T05:28:54.510Z,98051.54
2018-12-21T05:31:28.457Z,98057.88
2018-12-21T05:34:01.683Z,98059.13
2018-12-21T05:36:34.545Z,98059.59
2018-12-21T05:39:08.957Z,98062.17
2018-12-21T05:41:41.945Z,98063.02
2018-12-21T05:44:16.456Z,98063.98
2018-12-21T05:46:50.079Z,98068.76
2018-12-21T05:49:23.005Z,98075.27
2018-12-21T05:51:55.863Z,98076.98
2018-12-21T05:54:28.800Z,98081.77
2018-12-21T05:57:01.684Z,98079.66
2018-12-21T05:59:34.768Z,98082.70
2018-12-21T06:02:07.678Z,98074.08
2018-12-21T06:04:40.563Z,98075.39
2018-12-21T06:07:13.450Z,98077.53
2018-12-21T06:09:46.345Z,98070.23
2018-12-21T06:12:19.257Z,98064.21
2018-12-21T06:14:52.123Z,98065.43
2018-12-21T06:17:25.008Z,98065.37
2018-12-21T06:19:57.889Z,98059.31
2018-12-21T06:22:30.752Z,98065.73
2018-12-21T06:25:03.897Z,98051.92
2018-12-21T06:27:36.765Z,98045.03
2018-12-21T06:30:09.732Z,98045.39
2018-12-21T06:32:42.619Z,98036.33
2018-12-21T06:35:15.481Z,98032.45
2018-12-21T06:37:48.620Z,98035.86
2018-12-21T06:40:21.660Z,98024.59
2018-12-21T06:42:54.551Z,98021.13
2018-12-21T06:45:27.560Z,98019.79
2018-12-21T06:48:00.442Z,98013.34
2018-12-21T06:50:33.322Z,98009.76
2018-12-21T06:53:06.158Z,98023.52
2018-12-21T06:55:39.124Z,97999.84
2018-12-21T06:58:11.979Z,97989.04
2018-12-21T07:00:44.841Z,97991.92
2018-12-21T07:03:17.692Z,97988.89
2018-12-21T07:05:50.601Z,97987.45
2018-12-21T07:08:23.499Z,97982.80
2018-12-21T07:10:56.419Z,97978.48
2018-12-21T07:13:29.274Z,97979.68
2018-12-21T07:16:02.169Z,97971.17
2018-12-21T07:18:35.000Z,97960.89
2018-12-21T07:21:07.906Z,97960.42
2018-12-21T07:23:41.686Z,97957.41
2018-12-21T07:26:14.567Z,97947.42
2018-12-21T07:28:47.407Z,97949.97
2018-12-21T07:31:20.291Z,97958.66
2018-12-21T07:33:53.133Z,97952.99
2018-12-21T07:36:26.142Z,97936.11
2018-12-21T07:38:58.977Z,97920.11
2018-12-21T07:41:31.841Z,97935.55
2018-12-21T07:44:04.722Z,97916.52
2018-12-21T07:46:37.574Z,97912.55
2018-12-21T07:49:10.460Z,97902.55
2018-12-21T07:51:43.361Z,97898.08
2018-12-21T07:54:16.191Z,97894.78
2018-12-21T07:56:49.069Z,97903.63
2018-12-21T07:59:21.909Z,97890.94
2018-12-21T08:01:54.813Z,97878.36
2018-12-21T08:04:27.665Z,97877.44
2018-12-21T08:07:00.612Z,97874.37
2018-12-21T08:09:33.444Z,97874.78
2018-12-21T08:12:06.348Z,97867.80
2018-12-21T08:14:35.435Z,97859.61
2018-12-21T08:17:08.377Z,97863.45
2018-12-21T08:19:41.245Z,97857.80
2018-12-21T08:22:14.176Z,97856.36
2018-12-21T08:24:47.409Z,97853.25
2018-12-21T08:27:20.371Z,97850.30
2018-12-21T08:29:53.202Z,97844.72
2018-12-21T08:32:26.114Z,97844.24
2018-12-21T08:34:58.992Z,97848.19
2018-12-21T08:37:31.884Z,97854.88
2018-12-21T08:40:06.986Z,97851.72
2018-12-21T08:42:39.889Z,97848.09
2018-12-21T08:45:12.809Z,97843.02
2018-12-21T08:47:45.740Z,97835.06
2018-12-21T08:50:18.603Z,97837.41
2018-12-21T08:52:51.520Z,97829.83
2018-12-21T08:55:24.405Z,97811.30
2018-12-21T08:57:57.363Z,97802.73
2018-12-21T09:00:30.260Z,97800.56
2018-12-21T09:03:03.232Z,97795.87
2018-12-21T09:05:36.190Z,97776.90
2018-12-21T09:08:09.125Z,97782.06
2018-12-21T09:10:42.000Z,97767.81
2018-12-21T09:13:14.884Z,97762.17
2018-12-21T09:15:47.792Z,97752.65
2018-12-21T09:18:20.783Z,97751.18
2018-12-21T09:20:53.656Z,97757.05
2018-12-21T09:23:26.546Z,97748.75
2018-12-21T09:25:59.408Z,97742.44
2018-12-21T09:28:32.356Z,97748.30
2018-12-21T09:31:05.223Z,97737.37
2018-12-21T09:33:38.138Z,97751.28
2018-12-21T09:36:10.997Z,97718.32
2018-12-21T09:38:43.917Z,97726.48
2018-12-21T09:41:16.778Z,97736.64
2018-12-21T09:43:49.722Z,97722.78
2018-12-21T09:46:22.637Z,97736.64
2018-12-21T09:48:55.531Z,97721.81
2018-12-21T09:51:28.417Z,97722.26
2018-12-21T09:54:09.631Z,97718.38
2018-12-21T09:56:36.177Z,97706.25
2018-12-21T09:59:09.068Z,97696.06
2018-12-21T10:01:41.945Z,97710.53
2018-12-21T10:04:18.037Z,97708.31
2018-12-21T10:06:50.923Z,97694.41
2018-12-21T10:09:23.833Z,97704.02
2018-12-21T10:11:56.747Z,97688.39
2018-12-21T10:14:29.664Z,97689.23
2018-12-21T10:17:02.581Z,97688.55
2018-12-21T10:19:35.521Z,97668.54
2018-12-21T10:22:08.383Z,97661.63
2018-12-21T10:24:41.249Z,97663.41
2018-12-21T10:27:14.097Z,97643.72
2018-12-21T10:29:47.005Z,97640.77
2018-12-21T10:32:19.880Z,97635.20
2018-12-21T10:34:52.784Z,97627.56
2018-12-21T10:37:25.667Z,97623.08
2018-12-21T10:39:55.599Z,97622.27
2018-12-21T10:42:28.442Z,97606.75
2018-12-21T10:45:01.366Z,97601.22
2018-12-21T10:47:34.284Z,97630.87
2018-12-21T10:50:09.215Z,97572.52
2018-12-21T10:52:42.239Z,97572.69
2018-12-21T10:55:15.216Z,97578.75
2018-12-21T10:57:48.113Z,97563.59
2018-12-21T11:00:21.056Z,97577.77
2018-12-21T11:02:53.910Z,97552.68
2018-12-21T11:05:26.898Z,97547.51
2018-12-21T11:07:59.746Z,97523.02
2018-12-21T11:10:32.694Z,97522.05
2018-12-21T11:13:05.608Z,97506.44
2018-12-21T11:15:38.500Z,97504.74
2018-12-21T11:18:11.421Z,97497.83
2018-12-21T11:20:44.282Z,97474.06
2018-12-21T11:23:17.187Z,97469.83
2018-12-21T11:25:50.078Z,97472.41
2018-12-21T11:28:25.499Z,97453.19
2018-12-21T11:30:57.898Z,97451.41
2018-12-21T11:33:30.760Z,97439.27
2018-12-21T11:36:03.744Z,97434.02
2018-12-21T11:38:36.616Z,97424.02
2018-12-21T11:41:09.518Z,97411.38
2018-12-21T11:43:42.452Z,97400.95
2018-12-21T11:46:15.326Z,97387.07
2018-12-21T11:48:48.243Z,97394.87
2018-12-21T11:51:21.267Z,97409.45
2018-12-21T11:53:54.200Z,97388.58
2018-12-21T11:56:27.127Z,97394.89
2018-12-21T11:59:00.056Z,97369.73
2018-12-21T12:01:33.053Z,97379.63
2018-12-21T12:04:05.964Z,97400.98
2018-12-21T12:06:39.009Z,97388.11
2018-12-21T12:09:11.893Z,97346.98
2018-12-21T12:11:44.891Z,97372.42
2018-12-21T12:14:17.744Z,97371.63
2018-12-21T12:16:50.656Z,97351.50
2018-12-21T12:19:23.502Z,97355.03
2018-12-21T12:21:56.397Z,97337.75
2018-12-21T12:24:29.484Z,97359.17
2018-12-21T12:27:02.357Z,97353.23
2018-12-21T12:29:35.254Z,97353.57
2018-12-21T12:32:08.100Z,97357.91
2018-12-21T12:34:40.985Z,97370.86
2018-12-21T12:37:14.280Z,97334.70
2018-12-21T12:39:47.611Z,97332.91
2018-12-21T12:42:20.494Z,97332.20
2018-12-21T12:44:53.387Z,97327.14
2018-12-21T12:47:26.633Z,97346.22
2018-12-21T12:49:59.548Z,97339.30
2018-12-21T12:52:32.998Z,97334.11
2018-12-21T12:55:06.476Z,97325.95
2018-12-21T12:57:39.392Z,97323.14
2018-12-21T13:00:12.371Z,97320.01
2018-12-21T13:02:45.358Z,97320.74
2018-12-21T13:05:18.329Z,97315.30
2018-12-21T13:07:51.305Z,97319.66
2018-12-21T13:10:24.490Z,97327.48
2018-12-21T13:12:58.671Z,97317.13
2018-12-21T13:15:31.727Z,97336.11
2018-12-21T13:18:04.705Z,97317.97
2018-12-21T13:20:37.630Z,97327.56
2018-12-21T13:23:10.557Z,97326.61
2018-12-21T13:25:43.517Z,97323.11
2018-12-21T13:28:16.455Z,97321.16
2018-12-21T13:30:49.361Z,97331.13
2018-12-21T13:33:22.306Z,97330.23
2018-12-21T13:35:55.191Z,97317.78
2018-12-21T13:38:28.874Z,97334.75
2018-12-21T13:41:01.755Z,97321.16
2018-12-21T13:43:34.906Z,97315.08
2018-12-21T13:46:07.991Z,97322.46
2018-12-21T13:48:41.063Z,97322.91
2018-12-21T13:51:14.014Z,97327.70
2018-12-21T13:53:47.022Z,97326.92
2018-12-21T13:56:19.935Z,97334.24
2018-12-21T13:58:52.842Z,97325.11
2018-12-21T14:01:25.822Z,97339.42
2018-12-21T14:03:58.783Z,97334.52
2018-12-21T14:06:31.845Z,97333.13
2018-12-21T14:09:06.416Z,97334.95
2018-12-21T14:11:39.359Z,97341.31
2018-12-21T14:14:12.308Z,97337.09
2018-12-21T14:16:45.287Z,97336.39
2018-12-21T14:19:18.224Z,97338.92
2018-12-21T14:21:51.223Z,97344.41
2018-12-21T14:24:24.236Z,97333.20
2018-12-21T14:26:57.130Z,97344.50
2018-12-21T14:29:30.851Z,97343.00
2018-12-21T14:32:03.717Z,97339.05
2018-12-21T14:34:40.809Z,97356.09
2018-12-21T14:37:14.244Z,97349.66
2018-12-21T14:39:47.163Z,97357.72
2018-12-21T14:42:20.096Z,97359.64
2018-12-21T14:44:53.010Z,97362.48
2018-12-21T14:47:26.340Z,97360.55
2018-12-21T14:49:59.278Z,97364.73
2018-12-21T14:52:32.251Z,97358.45
2018-12-21T14:55:06.378Z,97355.26
2018-12-21T14:57:39.313Z,97361.11
2018-12-21T15:00:12.682Z,97359.81
2018-12-21T15:02:45.561Z,97367.31
2018-12-21T15:05:19.010Z,97364.66
2018-12-21T15:07:52.087Z,97366.64
2018-12-21T15:10:25.288Z,97364.70
2018-12-21T15:12:58.320Z,97365.69
2018-12-21T15:15:31.259Z,97360.08
2018-12-21T15:18:04.170Z,97358.63
2018-12-21T15:20:37.471Z,97366.61
2018-12-21T15:23:10.327Z,97356.77
2018-12-21T15:25:46.183Z,97363.82
2018-12-21T15:28:18.124Z,97369.24
2018-12-21T15:30:51.114Z,97363.39
2018-12-21T15:33:24.053Z,97364.27
2018-12-21T15:35:56.973Z,97363.13
2018-12-21T15:38:29.909Z,97363.52
2018-12-21T15:41:02.827Z,97381.34
2018-12-21T15:43:35.870Z,97377.77
2018-12-21T15:46:08.764Z,97372.56
2018-12-21T15:48:42.759Z,97366.91
2018-12-21T15:51:16.753Z,97372.41
2018-12-21T15:53:51.400Z,97370.66
2018-12-21T15:56:26.620Z,97367.02
2018-12-21T15:59:02.461Z,97379.55
2018-12-21T16:01:37.087Z,97386.80
2018-12-21T16:04:10.300Z,97394.07
2018-12-21T16:06:43.502Z,97391.80
2018-12-21T16:09:16.412Z,97388.80
2018-12-21T16:11:49.315Z,97387.25
2018-12-21T16:14:22.340Z,97371.38
2018-12-21T16:16:55.324Z,97378.27
2018-12-21T16:19:28.252Z,97372.58
2018-12-21T16:22:01.397Z,97378.87
2018-12-21T16:24:34.419Z,97375.12
2018-12-21T16:27:10.627Z,97369.86
2018-12-21T16:29:43.633Z,97375.97
2018-12-21T16:32:16.694Z,97390.72
2018-12-21T16:34:49.669Z,97378.43
2018-12-21T16:37:22.939Z,97372.84
2018-12-21T16:39:56.201Z,97384.23
2018-12-21T16:42:29.113Z,97365.72
2018-12-21T16:45:02.130Z,97381.11
2018-12-21T16:47:35.497Z,97380.13
2018-12-21T16:50:13.052Z,97390.67
2018-12-21T16:52:46.003Z,97381.95
2018-12-21T16:55:19.228Z,97390.53
2018-12-21T16:57:52.142Z,97381.33
2018-12-21T17:00:25.250Z,97380.34
2018-12-21T17:02:58.334Z,97385.02
2018-12-21T17:05:31.279Z,97394.97
2018-12-21T17:08:04.308Z,97391.80
2018-12-21T17:10:38.643Z,97388.06
2018-12-21T17:13:11.680Z,97394.47
2018-12-21T17:15:44.574Z,97397.77
2018-12-21T17:18:17.708Z,97398.38
2018-12-21T17:20:50.742Z,97396.48
2018-12-21T17:23:23.892Z,97406.18
2018-12-21T17:25:58.191Z,97414.38
2018-12-21T17:28:30.174Z,97412.55
2018-12-21T17:31:03.111Z,97414.69
2018-12-21T17:33:36.208Z,97424.89
2018-12-21T17:36:09.083Z,97414.30
2018-12-21T17:38:42.137Z,97420.14
2018-12-21T17:41:16.694Z,97408.88
2018-12-21T17:43:49.863Z,97402.59
2018-12-21T17:46:22.772Z,97402.83
2018-12-21T17:48:55.803Z,97395.02
2018-12-21T17:51:28.882Z,97409.54
2018-12-21T17:54:01.806Z,97393.06
2018-12-21T17:56:34.838Z,97393.61
2018-12-21T17:59:07.841Z,97403.88
2018-12-21T18:01:40.879Z,97402.19
2018-12-21T18:04:15.869Z,97401.73
2018-12-21T18:06:48.928Z,97395.22
2018-12-21T18:09:22.139Z,97397.30
2018-12-21T18:11:57.297Z,97390.78
2018-12-21T18:14:30.400Z,97398.28
2018-12-21T18:17:03.450Z,97388.02
2018-12-21T18:19:36.505Z,97390.55
2018-12-21T18:22:09.547Z,97374.92
2018-12-21T18:24:42.646Z,97393.61
2018-12-21T18:27:15.744Z,97390.78
2018-12-21T18:29:48.700Z,97401.13
2018-12-21T18:32:22.042Z,97408.09
2018-12-21T18:34:55.028Z,97405.23
2018-12-21T18:37:28.045Z,97404.06
2018-12-21T18:40:02.207Z,97417.55
2018-12-21T18:42:35.262Z,97419.16
2018-12-21T18:45:08.944Z,97416.09
2018-12-21T18:47:41.838Z,97420.59
2018-12-21T18:50:14.867Z,97418.95
2018-12-21T18:52:47.837Z,97420.41
2018-12-21T18:55:20.774Z,97425.31
2018-12-21T18:57:53.871Z,97435.28
2018-12-21T19:00:27.074Z,97429.99
2018-12-21T19:02:59.955Z,97426.77
2018-12-21T19:05:33.082Z,97421.00
2018-12-21T19:08:06.182Z,97417.32
2018-12-21T19:10:42.594Z,97421.15
2018-12-21T19:13:15.459Z,97418.31
2018-12-21T19:15:49.857Z,97427.97
2018-12-21T19:18:23.019Z,97415.70
2018-12-21T19:20:55.988Z,97428.05
2018-12-21T19:23:29.389Z,97433.61
2018-12-21T19:26:02.474Z,97427.09
2018-12-21T19:28:35.475Z,97442.00
2018-12-21T19:31:09.346Z,97443.19
2018-12-21T19:33:42.970Z,97461.80
2018-12-21T19:36:16.133Z,97474.75
2018-12-21T19:38:52.653Z,97469.35
2018-12-21T19:41:25.584Z,97475.25
2018-12-21T19:43:58.574Z,97481.11
2018-12-21T19:46:31.554Z,97474.34
2018-12-21T19:49:04.727Z,97478.52
2018-12-21T19:51:37.738Z,97490.87
2018-12-21T19:54:11.094Z,97474.53
2018-12-21T19:56:46.823Z,97492.60
2018-12-21T19:59:19.967Z,97486.27
2018-12-21T20:01:52.979Z,97491.17
2018-12-21T20:04:25.985Z,97493.66
2018-12-21T20:06:59.209Z,97499.41
2018-12-21T20:09:33.389Z,97493.89
2018-12-21T20:12:06.367Z,97502.40
2018-12-21T20:14:39.308Z,97506.77
2018-12-21T20:17:12.279Z,97505.92
2018-12-21T20:19:45.243Z,97500.25
2018-12-21T20:22:18.165Z,97501.70
2018-12-21T20:24:51.176Z,97496.37
2018-12-21T20:27:24.195Z,97495.52
2018-12-21T20:29:57.081Z,97497.64
2018-12-21T20:32:29.999Z,97498.26
2018-12-21T20:35:03.211Z,97496.30
2018-12-21T20:37:36.210Z,97490.97
2018-12-21T20:40:11.490Z,97498.79
2018-12-21T20:42:44.484Z,97501.33
2018-12-21T20:45:17.444Z,97494.42
2018-12-21T20:47:52.072Z,97490.84
2018-12-21T20:50:24.963Z,97485.43
2018-12-21T20:52:57.902Z,97492.53
2018-12-21T20:55:30.996Z,97503.49
2018-12-21T20:58:04.650Z,97495.02
2018-12-21T21:00:37.574Z,97490.34
2018-12-21T21:03:10.617Z,97497.45
2018-12-21T21:05:44.105Z,97496.34
2018-12-21T21:08:17.242Z,97492.66
2018-12-21T21:10:50.319Z,97477.94
2018-12-21T21:13:23.243Z,97486.31
2018-12-21T21:15:56.147Z,97485.63
2018-12-21T21:18:31.453Z,97488.86
2018-12-21T21:21:04.400Z,97498.59
2018-12-21T21:23:37.330Z,97499.18
2018-12-21T21:26:10.368Z,97505.03
2018-12-21T21:28:44.001Z,97508.76
2018-12-21T21:31:16.979Z,97512.39
2018-12-21T21:33:49.914Z,97509.01
2018-12-21T21:36:22.833Z,97506.86
2018-12-21T21:38:55.747Z,97506.66
2018-12-21T21:41:28.699Z,97501.73
2018-12-21T21:44:01.656Z,97499.52
2018-12-21T21:46:34.697Z,97498.33
2018-12-21T21:49:07.722Z,97521.02
2018-12-21T21:51:40.746Z,97511.00
2018-12-21T21:54:13.696Z,97513.08
2018-12-21T21:56:46.622Z,97522.92
2018-12-21T21:59:19.583Z,97519.72
2018-12-21T22:01:52.579Z,97516.66
2018-12-21T22:04:25.541Z,97522.02
2018-12-21T22:06:58.410Z,97522.92
2018-12-21T22:09:31.447Z,97522.23
2018-12-21T22:12:04.368Z,97532.05
2018-12-21T22:14:36.772Z,97531.26
2018-12-21T22:17:09.707Z,97535.38
2018-12-21T22:19:42.623Z,97536.28
2018-12-21T22:22:15.495Z,97538.72
2018-12-21T22:24:47.271Z,97538.16
2018-12-21T22:27:20.167Z,97536.94
2018-12-21T22:29:53.064Z,97545.16
2018-12-21T22:32:25.964Z,97544.35
2018-12-21T22:34:58.884Z,97544.88
2018-12-21T22:37:31.788Z,97536.78
2018-12-21T22:40:07.610Z,97536.48
2018-12-21T22:42:40.488Z,97537.05
2018-12-21T22:45:13.399Z,97536.66
2018-12-21T22:47:46.329Z,97543.58
2018-12-21T22:50:19.333Z,97546.14
2018-12-21T22:52:48.455Z,97550.43
2018-12-21T22:55:21.387Z,97551.80
2018-12-21T22:57:56.628Z,97548.81
2018-12-21T23:00:31.364Z,97558.02
2018-12-21T23:03:04.289Z,97543.58
2018-12-21T23:05:37.195Z,97545.73
2018-12-21T23:08:10.075Z,97558.55
2018-12-21T23:10:43.976Z,97562.22
2018-12-21T23:13:17.005Z,97555.48
2018-12-21T23:15:49.936Z,97558.19
2018-12-21T23:18:22.802Z,97565.80
2018-12-21T23:20:53.933Z,97569.84
2018-12-21T23:23:26.926Z,97564.47
2018-12-21T23:25:59.861Z,97556.72
2018-12-21T23:28:32.838Z,97558.62
2018-12-21T23:31:05.760Z,97562.46
2018-12-21T23:33:38.669Z,97562.00
2018-12-21T23:36:11.575Z,97566.06
2018-12-21T23:38:44.563Z,97571.73
2018-12-21T23:41:18.834Z,97578.25
2018-12-21T23:43:51.693Z,97585.78
2018-12-21T23:46:24.794Z,97579.34
2018-12-21T23:48:57.710Z,97577.19
2018-12-21T23:51:31.045Z,97578.56
2018-12-21T23:54:04.015Z,97579.02
2018-12-21T23:56:36.899Z,97573.88
2018-12-21T23:59:09.791Z,97571.98
